Tulsa, OK (74106)

7:05 PM CDT on September 29, 2016 (GMT -0500)
United Neighborhood of Springdale | | Change Station

Elev 761 ft 36.17 °N, 95.96 °W | Updated 8 minutes ago

Partly Cloudy
Partly Cloudy
73.4 °F
Feels Like 77 °F
N
0.6
Wind Variable Wind from West
Gusts 1.2 mph

Today
High -- | Low -- °F
--% Chance of Precip.
Yesterday
High -- | Low -- °F
Precip. -- in
Pressure 30.24 in
Visibility 10.0 miles
Clouds Few 25000 ft
Heat Index 77 °F
Dew Point 52 °F
Humidity 47%
Rainfall 0.00 in
Snow Depth Not available.
7:17 AM 7:09 PM
Waning Crescent, 1% visible
METAR KTUL 292353Z 35008KT 10SM FEW250 21/09 A3024 RMK AO2 SLP238 T02060094 10244 20206 55003
Pressure 30.24 in
Visibility 10.0 miles
Clouds Few 25000 ft
Heat Index 77 °F
Dew Point 52 °F
Humidity 47%
Rainfall 0.00 in
Snow Depth Not available.
7:17 AM 7:09 PM
Waning Crescent, 1% visible
METAR KTUL 292353Z 35008KT 10SM FEW250 21/09 A3024 RMK AO2 SLP238 T02060094 10244 20206 55003

10-Day Weather Forecast

Almanac

Astronomy

Sep. 29, 2016 Rise Set
Actual Time
Civil Twilight
Nautical Twilight
Astronomical Twilight
Moon
Length of Visible Light
Length of Day
Tomorrow will be .
, % of the Moon is Illuminated

Today's Extremes

State Highs State Lows

Community

WunderPhotos

Upload Photos

1,942,602 photos uploaded!

WunderBlog® & News

Nearby

Air Quality

  Air Quality AQ Index Pollutant
Not available.

Snow Depth

Station Depth Elevation

Earthquake Activity

City Distance Mag. Time & Date
Minimum magnitude displayed is 2.5.

Coastal Water Temperatures

Place Temperature

Stations

Nearby Weather Stations

Station Location Temp. Windchill Dew Point Humidity Wind Precip. Elev Updated Type
                   

Watches & Warnings

There are currently no watches in effect.